sensor_id;sensor_type;location;lat;lon;timestamp;P1;durP1;ratioP1;P2;durP2;ratioP2
840;SDS011;406;48.566;13.450;2023-08-21T00:00:50;12.23;;;11.03;;
840;SDS011;406;48.566;13.450;2023-08-21T00:03:16;14.60;;;11.87;;
840;SDS011;406;48.566;13.450;2023-08-21T00:05:43;15.73;;;12.60;;
840;SDS011;406;48.566;13.450;2023-08-21T00:08:09;15.90;;;12.00;;
840;SDS011;406;48.566;13.450;2023-08-21T00:10:39;10.90;;;9.90;;
840;SDS011;406;48.566;13.450;2023-08-21T00:13:07;11.40;;;10.23;;
840;SDS011;406;48.566;13.450;2023-08-21T00:15:33;13.20;;;11.80;;
840;SDS011;406;48.566;13.450;2023-08-21T00:18:00;15.10;;;11.80;;
840;SDS011;406;48.566;13.450;2023-08-21T00:20:27;11.90;;;10.57;;
840;SDS011;406;48.566;13.450;2023-08-21T00:22:53;12.70;;;11.50;;
840;SDS011;406;48.566;13.450;2023-08-21T00:25:21;12.97;;;11.40;;
840;SDS011;406;48.566;13.450;2023-08-21T00:27:48;12.40;;;11.10;;
840;SDS011;406;48.566;13.450;2023-08-21T00:30:14;12.90;;;10.70;;
840;SDS011;406;48.566;13.450;2023-08-21T00:32:41;13.43;;;12.13;;
840;SDS011;406;48.566;13.450;2023-08-21T00:35:08;13.63;;;12.23;;
840;SDS011;406;48.566;13.450;2023-08-21T00:37:34;14.33;;;11.40;;
840;SDS011;406;48.566;13.450;2023-08-21T00:40:01;12.30;;;11.10;;
840;SDS011;406;48.566;13.450;2023-08-21T00:42:28;11.93;;;10.63;;
840;SDS011;406;48.566;13.450;2023-08-21T00:44:54;12.00;;;10.67;;
840;SDS011;406;48.566;13.450;2023-08-21T00:47:22;15.73;;;11.40;;
840;SDS011;406;48.566;13.450;2023-08-21T00:49:48;14.53;;;12.67;;
840;SDS011;406;48.566;13.450;2023-08-21T00:52:15;12.73;;;11.30;;
840;SDS011;406;48.566;13.450;2023-08-21T00:54:42;11.67;;;10.53;;
840;SDS011;406;48.566;13.450;2023-08-21T00:57:10;12.40;;;11.20;;
840;SDS011;406;48.566;13.450;2023-08-21T00:59:37;13.67;;;11.93;;
840;SDS011;406;48.566;13.450;2023-08-21T01:02:04;13.23;;;11.83;;
840;SDS011;406;48.566;13.450;2023-08-21T01:04:30;12.27;;;11.07;;
840;SDS011;406;48.566;13.450;2023-08-21T01:06:57;15.07;;;12.60;;
840;SDS011;406;48.566;13.450;2023-08-21T01:09:26;14.20;;;11.83;;
840;SDS011;406;48.566;13.450;2023-08-21T01:11:58;14.20;;;12.80;;
840;SDS011;406;48.566;13.450;2023-08-21T01:14:43;15.33;;;12.40;;
840;SDS011;406;48.566;13.450;2023-08-21T01:17:29;13.93;;;12.50;;
840;SDS011;406;48.566;13.450;2023-08-21T01:19:56;13.93;;;12.50;;
840;SDS011;406;48.566;13.450;2023-08-21T01:22:41;13.03;;;11.70;;
840;SDS011;406;48.566;13.450;2023-08-21T01:25:12;12.57;;;11.37;;
840;SDS011;406;48.566;13.450;2023-08-21T01:27:43;14.83;;;11.13;;
840;SDS011;406;48.566;13.450;2023-08-21T01:30:13;13.00;;;11.60;;
840;SDS011;406;48.566;13.450;2023-08-21T01:35:12;12.77;;;11.50;;
840;SDS011;406;48.566;13.450;2023-08-21T01:37:39;15.10;;;12.87;;
840;SDS011;406;48.566;13.450;2023-08-21T01:40:05;13.33;;;12.07;;
840;SDS011;406;48.566;13.450;2023-08-21T01:42:33;13.33;;;11.93;;
840;SDS011;406;48.566;13.450;2023-08-21T01:44:59;13.33;;;11.33;;
840;SDS011;406;48.566;13.450;2023-08-21T01:47:27;13.53;;;12.23;;
840;SDS011;406;48.566;13.450;2023-08-21T01:49:54;14.60;;;11.70;;
840;SDS011;406;48.566;13.450;2023-08-21T01:52:20;11.97;;;10.77;;
840;SDS011;406;48.566;13.450;2023-08-21T01:54:49;13.53;;;12.10;;
840;SDS011;406;48.566;13.450;2023-08-21T01:57:16;14.13;;;12.37;;
840;SDS011;406;48.566;13.450;2023-08-21T01:59:43;13.50;;;11.40;;
840;SDS011;406;48.566;13.450;2023-08-21T02:02:10;14.10;;;12.50;;
840;SDS011;406;48.566;13.450;2023-08-21T02:04:36;18.20;;;12.20;;
840;SDS011;406;48.566;13.450;2023-08-21T02:07:03;18.27;;;11.80;;
840;SDS011;406;48.566;13.450;2023-08-21T02:09:29;15.60;;;12.40;;
840;SDS011;406;48.566;13.450;2023-08-21T02:11:56;12.27;;;10.90;;
840;SDS011;406;48.566;13.450;2023-08-21T02:14:22;13.50;;;12.13;;
840;SDS011;406;48.566;13.450;2023-08-21T02:16:49;13.90;;;12.50;;
840;SDS011;406;48.566;13.450;2023-08-21T02:19:16;13.37;;;11.17;;
840;SDS011;406;48.566;13.450;2023-08-21T02:21:42;14.47;;;13.00;;
840;SDS011;406;48.566;13.450;2023-08-21T02:24:09;15.43;;;11.80;;
840;SDS011;406;48.566;13.450;2023-08-21T02:26:37;13.90;;;11.80;;
840;SDS011;406;48.566;13.450;2023-08-21T02:29:04;12.83;;;11.50;;
840;SDS011;406;48.566;13.450;2023-08-21T02:31:32;13.80;;;11.60;;
840;SDS011;406;48.566;13.450;2023-08-21T02:33:58;13.33;;;11.60;;
840;SDS011;406;48.566;13.450;2023-08-21T02:36:25;14.57;;;12.97;;
840;SDS011;406;48.566;13.450;2023-08-21T02:38:51;12.57;;;11.27;;
840;SDS011;406;48.566;13.450;2023-08-21T02:41:18;14.03;;;12.60;;
840;SDS011;406;48.566;13.450;2023-08-21T02:43:44;14.50;;;12.47;;
840;SDS011;406;48.566;13.450;2023-08-21T02:46:11;12.70;;;11.37;;
840;SDS011;406;48.566;13.450;2023-08-21T02:48:38;13.40;;;12.00;;
840;SDS011;406;48.566;13.450;2023-08-21T02:51:04;15.63;;;12.83;;
840;SDS011;406;48.566;13.450;2023-08-21T02:53:31;14.13;;;12.63;;
840;SDS011;406;48.566;13.450;2023-08-21T02:55:58;14.00;;;12.50;;
840;SDS011;406;48.566;13.450;2023-08-21T02:58:24;13.23;;;11.90;;
840;SDS011;406;48.566;13.450;2023-08-21T03:00:51;15.57;;;12.13;;
840;SDS011;406;48.566;13.450;2023-08-21T03:03:17;13.30;;;11.80;;
840;SDS011;406;48.566;13.450;2023-08-21T03:05:44;13.63;;;12.10;;
840;SDS011;406;48.566;13.450;2023-08-21T03:08:11;15.27;;;11.80;;
840;SDS011;406;48.566;13.450;2023-08-21T03:10:37;14.00;;;11.97;;
840;SDS011;406;48.566;13.450;2023-08-21T03:13:05;14.07;;;12.50;;
840;SDS011;406;48.566;13.450;2023-08-21T03:15:32;14.00;;;12.60;;
840;SDS011;406;48.566;13.450;2023-08-21T03:17:58;13.87;;;12.43;;
840;SDS011;406;48.566;13.450;2023-08-21T03:20:26;13.50;;;11.90;;
840;SDS011;406;48.566;13.450;2023-08-21T03:22:53;14.20;;;11.93;;
840;SDS011;406;48.566;13.450;2023-08-21T03:25:21;15.13;;;12.70;;
840;SDS011;406;48.566;13.450;2023-08-21T03:27:48;13.20;;;11.80;;
840;SDS011;406;48.566;13.450;2023-08-21T03:30:16;14.23;;;11.97;;
840;SDS011;406;48.566;13.450;2023-08-21T03:32:42;14.30;;;12.90;;
840;SDS011;406;48.566;13.450;2023-08-21T03:35:10;17.80;;;13.10;;
840;SDS011;406;48.566;13.450;2023-08-21T03:37:37;16.57;;;15.07;;
840;SDS011;406;48.566;13.450;2023-08-21T03:40:05;15.80;;;14.10;;
840;SDS011;406;48.566;13.450;2023-08-21T03:42:32;15.10;;;13.60;;
840;SDS011;406;48.566;13.450;2023-08-21T03:44:59;15.73;;;12.70;;
840;SDS011;406;48.566;13.450;2023-08-21T03:47:25;14.73;;;12.77;;
840;SDS011;406;48.566;13.450;2023-08-21T03:49:57;16.03;;;13.13;;
840;SDS011;406;48.566;13.450;2023-08-21T03:52:25;17.20;;;12.53;;
840;SDS011;406;48.566;13.450;2023-08-21T03:54:51;14.93;;;13.43;;
840;SDS011;406;48.566;13.450;2023-08-21T03:57:18;15.30;;;13.57;;
840;SDS011;406;48.566;13.450;2023-08-21T03:59:44;16.30;;;14.53;;
840;SDS011;406;48.566;13.450;2023-08-21T04:02:11;14.00;;;12.47;;
840;SDS011;406;48.566;13.450;2023-08-21T04:04:37;17.70;;;14.33;;
840;SDS011;406;48.566;13.450;2023-08-21T04:07:04;14.63;;;13.07;;
840;SDS011;406;48.566;13.450;2023-08-21T04:09:30;15.07;;;13.03;;
840;SDS011;406;48.566;13.450;2023-08-21T04:11:57;14.00;;;12.10;;
840;SDS011;406;48.566;13.450;2023-08-21T04:14:23;15.57;;;13.90;;
840;SDS011;406;48.566;13.450;2023-08-21T04:16:50;16.10;;;14.13;;
840;SDS011;406;48.566;13.450;2023-08-21T04:19:18;16.87;;;12.50;;
840;SDS011;406;48.566;13.450;2023-08-21T04:21:45;15.20;;;13.67;;
840;SDS011;406;48.566;13.450;2023-08-21T04:24:12;14.73;;;13.00;;
840;SDS011;406;48.566;13.450;2023-08-21T04:26:38;15.93;;;14.33;;
840;SDS011;406;48.566;13.450;2023-08-21T04:29:05;13.93;;;12.50;;
840;SDS011;406;48.566;13.450;2023-08-21T04:31:31;13.70;;;12.40;;
840;SDS011;406;48.566;13.450;2023-08-21T04:33:58;15.70;;;13.57;;
840;SDS011;406;48.566;13.450;2023-08-21T04:36:25;13.93;;;11.90;;
840;SDS011;406;48.566;13.450;2023-08-21T04:38:52;14.87;;;13.20;;
840;SDS011;406;48.566;13.450;2023-08-21T04:41:19;16.73;;;14.40;;
840;SDS011;406;48.566;13.450;2023-08-21T04:43:46;15.27;;;13.67;;
840;SDS011;406;48.566;13.450;2023-08-21T04:46:13;13.83;;;12.53;;
840;SDS011;406;48.566;13.450;2023-08-21T04:48:41;13.70;;;12.33;;
840;SDS011;406;48.566;13.450;2023-08-21T04:51:08;15.13;;;13.53;;
840;SDS011;406;48.566;13.450;2023-08-21T04:53:35;18.33;;;13.20;;
840;SDS011;406;48.566;13.450;2023-08-21T04:56:02;16.23;;;14.17;;
840;SDS011;406;48.566;13.450;2023-08-21T04:58:31;14.70;;;13.00;;
840;SDS011;406;48.566;13.450;2023-08-21T05:00:58;14.80;;;13.10;;
840;SDS011;406;48.566;13.450;2023-08-21T05:03:26;15.43;;;12.73;;
840;SDS011;406;48.566;13.450;2023-08-21T05:05:53;15.23;;;12.90;;
840;SDS011;406;48.566;13.450;2023-08-21T05:08:24;16.77;;;14.57;;
840;SDS011;406;48.566;13.450;2023-08-21T05:10:55;16.43;;;14.53;;
840;SDS011;406;48.566;13.450;2023-08-21T05:13:23;16.47;;;14.13;;
840;SDS011;406;48.566;13.450;2023-08-21T05:15:51;17.90;;;14.20;;
840;SDS011;406;48.566;13.450;2023-08-21T05:18:32;16.17;;;13.60;;
840;SDS011;406;48.566;13.450;2023-08-21T05:20:58;15.10;;;13.50;;
840;SDS011;406;48.566;13.450;2023-08-21T05:23:26;17.10;;;14.00;;
840;SDS011;406;48.566;13.450;2023-08-21T05:25:58;16.27;;;13.87;;
840;SDS011;406;48.566;13.450;2023-08-21T05:28:24;16.60;;;13.73;;
840;SDS011;406;48.566;13.450;2023-08-21T05:30:51;13.73;;;12.10;;
840;SDS011;406;48.566;13.450;2023-08-21T05:33:19;15.07;;;13.47;;
840;SDS011;406;48.566;13.450;2023-08-21T05:35:48;14.37;;;12.97;;
840;SDS011;406;48.566;13.450;2023-08-21T05:38:15;18.47;;;13.73;;
840;SDS011;406;48.566;13.450;2023-08-21T05:40:41;14.20;;;12.90;;
840;SDS011;406;48.566;13.450;2023-08-21T05:43:09;14.17;;;12.70;;
840;SDS011;406;48.566;13.450;2023-08-21T05:45:38;15.17;;;12.83;;
840;SDS011;406;48.566;13.450;2023-08-21T05:48:04;15.37;;;13.77;;
840;SDS011;406;48.566;13.450;2023-08-21T05:50:32;14.33;;;12.83;;
840;SDS011;406;48.566;13.450;2023-08-21T05:52:59;15.20;;;13.60;;
840;SDS011;406;48.566;13.450;2023-08-21T05:55:27;14.10;;;12.70;;
840;SDS011;406;48.566;13.450;2023-08-21T05:57:54;14.47;;;12.97;;
840;SDS011;406;48.566;13.450;2023-08-21T06:00:22;13.83;;;12.43;;
840;SDS011;406;48.566;13.450;2023-08-21T06:02:48;14.47;;;13.07;;
840;SDS011;406;48.566;13.450;2023-08-21T06:05:33;15.40;;;13.93;;
840;SDS011;406;48.566;13.450;2023-08-21T06:08:00;15.37;;;12.80;;
840;SDS011;406;48.566;13.450;2023-08-21T06:10:26;13.93;;;12.57;;
840;SDS011;406;48.566;13.450;2023-08-21T06:12:53;15.50;;;14.00;;
840;SDS011;406;48.566;13.450;2023-08-21T06:15:19;15.90;;;12.77;;
840;SDS011;406;48.566;13.450;2023-08-21T06:17:46;15.17;;;13.63;;
840;SDS011;406;48.566;13.450;2023-08-21T06:20:13;15.73;;;13.90;;
840;SDS011;406;48.566;13.450;2023-08-21T06:22:40;17.03;;;13.60;;
840;SDS011;406;48.566;13.450;2023-08-21T06:25:07;16.33;;;14.10;;
840;SDS011;406;48.566;13.450;2023-08-21T06:27:34;15.20;;;13.60;;
840;SDS011;406;48.566;13.450;2023-08-21T06:30:18;13.97;;;12.67;;
840;SDS011;406;48.566;13.450;2023-08-21T06:32:45;15.17;;;13.67;;
840;SDS011;406;48.566;13.450;2023-08-21T06:35:11;14.07;;;12.00;;
840;SDS011;406;48.566;13.450;2023-08-21T06:37:38;17.30;;;13.77;;
840;SDS011;406;48.566;13.450;2023-08-21T06:40:05;15.90;;;13.70;;
840;SDS011;406;48.566;13.450;2023-08-21T06:42:33;15.03;;;13.57;;
840;SDS011;406;48.566;13.450;2023-08-21T06:45:00;15.67;;;13.97;;
840;SDS011;406;48.566;13.450;2023-08-21T06:47:27;13.77;;;12.30;;
840;SDS011;406;48.566;13.450;2023-08-21T06:49:53;16.30;;;13.67;;
840;SDS011;406;48.566;13.450;2023-08-21T06:52:20;14.60;;;13.07;;
840;SDS011;406;48.566;13.450;2023-08-21T06:54:46;14.93;;;13.43;;
840;SDS011;406;48.566;13.450;2023-08-21T06:57:13;13.77;;;11.97;;
840;SDS011;406;48.566;13.450;2023-08-21T06:59:39;13.57;;;12.17;;
840;SDS011;406;48.566;13.450;2023-08-21T07:02:07;14.77;;;13.27;;
840;SDS011;406;48.566;13.450;2023-08-21T07:04:34;13.40;;;12.10;;
840;SDS011;406;48.566;13.450;2023-08-21T07:07:00;13.90;;;12.57;;
840;SDS011;406;48.566;13.450;2023-08-21T07:09:27;16.90;;;12.87;;
840;SDS011;406;48.566;13.450;2023-08-21T07:11:53;14.10;;;12.70;;
840;SDS011;406;48.566;13.450;2023-08-21T07:14:20;13.37;;;12.03;;
840;SDS011;406;48.566;13.450;2023-08-21T07:16:46;13.27;;;11.50;;
840;SDS011;406;48.566;13.450;2023-08-21T07:19:13;15.40;;;13.10;;
840;SDS011;406;48.566;13.450;2023-08-21T07:21:40;15.13;;;12.63;;
840;SDS011;406;48.566;13.450;2023-08-21T07:24:06;13.00;;;11.70;;
840;SDS011;406;48.566;13.450;2023-08-21T07:26:33;14.10;;;11.47;;
840;SDS011;406;48.566;13.450;2023-08-21T07:28:59;14.13;;;12.17;;
840;SDS011;406;48.566;13.450;2023-08-21T07:31:26;13.40;;;12.13;;
840;SDS011;406;48.566;13.450;2023-08-21T07:33:53;13.67;;;12.27;;
840;SDS011;406;48.566;13.450;2023-08-21T07:36:19;13.73;;;12.20;;
840;SDS011;406;48.566;13.450;2023-08-21T07:38:46;15.10;;;13.70;;
840;SDS011;406;48.566;13.450;2023-08-21T07:41:12;13.67;;;12.27;;
840;SDS011;406;48.566;13.450;2023-08-21T07:43:40;18.13;;;12.97;;
840;SDS011;406;48.566;13.450;2023-08-21T07:46:08;14.07;;;12.87;;
840;SDS011;406;48.566;13.450;2023-08-21T07:48:39;14.30;;;12.90;;
840;SDS011;406;48.566;13.450;2023-08-21T07:51:06;13.57;;;12.10;;
840;SDS011;406;48.566;13.450;2023-08-21T07:53:33;13.63;;;12.23;;
840;SDS011;406;48.566;13.450;2023-08-21T07:56:01;15.00;;;13.43;;
840;SDS011;406;48.566;13.450;2023-08-21T07:58:30;14.90;;;13.50;;
840;SDS011;406;48.566;13.450;2023-08-21T08:00:57;19.43;;;13.20;;
840;SDS011;406;48.566;13.450;2023-08-21T08:03:23;17.80;;;12.60;;
840;SDS011;406;48.566;13.450;2023-08-21T08:05:50;13.70;;;12.40;;
840;SDS011;406;48.566;13.450;2023-08-21T08:08:21;12.73;;;11.63;;
840;SDS011;406;48.566;13.450;2023-08-21T08:10:47;15.20;;;13.27;;
840;SDS011;406;48.566;13.450;2023-08-21T08:13:14;13.67;;;12.47;;
840;SDS011;406;48.566;13.450;2023-08-21T08:15:40;15.60;;;14.10;;
840;SDS011;406;48.566;13.450;2023-08-21T08:18:10;14.10;;;12.70;;
840;SDS011;406;48.566;13.450;2023-08-21T08:20:37;14.53;;;11.00;;
840;SDS011;406;48.566;13.450;2023-08-21T08:23:04;13.53;;;12.03;;
840;SDS011;406;48.566;13.450;2023-08-21T08:25:31;14.63;;;12.77;;
840;SDS011;406;48.566;13.450;2023-08-21T08:27:57;14.00;;;11.97;;
840;SDS011;406;48.566;13.450;2023-08-21T08:30:24;14.80;;;12.33;;
840;SDS011;406;48.566;13.450;2023-08-21T08:32:50;13.90;;;12.70;;
840;SDS011;406;48.566;13.450;2023-08-21T08:35:17;14.20;;;12.43;;
840;SDS011;406;48.566;13.450;2023-08-21T08:37:43;14.60;;;13.10;;
840;SDS011;406;48.566;13.450;2023-08-21T08:40:10;15.13;;;12.97;;
840;SDS011;406;48.566;13.450;2023-08-21T08:42:37;12.47;;;11.13;;
840;SDS011;406;48.566;13.450;2023-08-21T08:45:05;13.70;;;12.30;;
840;SDS011;406;48.566;13.450;2023-08-21T08:47:32;12.83;;;11.63;;
840;SDS011;406;48.566;13.450;2023-08-21T08:50:03;12.87;;;11.60;;
840;SDS011;406;48.566;13.450;2023-08-21T08:52:34;12.80;;;11.47;;
840;SDS011;406;48.566;13.450;2023-08-21T08:55:02;13.30;;;12.00;;
840;SDS011;406;48.566;13.450;2023-08-21T08:57:30;16.17;;;11.90;;
840;SDS011;406;48.566;13.450;2023-08-21T08:59:56;14.50;;;12.70;;
840;SDS011;406;48.566;13.450;2023-08-21T09:02:24;12.97;;;11.77;;
840;SDS011;406;48.566;13.450;2023-08-21T09:04:51;16.10;;;12.50;;
840;SDS011;406;48.566;13.450;2023-08-21T09:07:18;15.67;;;13.57;;
840;SDS011;406;48.566;13.450;2023-08-21T09:09:48;13.37;;;12.10;;
840;SDS011;406;48.566;13.450;2023-08-21T09:12:16;13.43;;;12.13;;
840;SDS011;406;48.566;13.450;2023-08-21T09:14:43;13.57;;;12.27;;
840;SDS011;406;48.566;13.450;2023-08-21T09:17:10;13.20;;;11.57;;
840;SDS011;406;48.566;13.450;2023-08-21T09:19:37;13.80;;;12.50;;
840;SDS011;406;48.566;13.450;2023-08-21T09:22:17;12.97;;;11.67;;
840;SDS011;406;48.566;13.450;2023-08-21T09:25:01;13.00;;;11.60;;
840;SDS011;406;48.566;13.450;2023-08-21T09:27:40;12.13;;;10.93;;
840;SDS011;406;48.566;13.450;2023-08-21T09:30:11;11.00;;;10.10;;
840;SDS011;406;48.566;13.450;2023-08-21T09:32:57;12.13;;;11.13;;
840;SDS011;406;48.566;13.450;2023-08-21T09:35:26;14.80;;;13.30;;
840;SDS011;406;48.566;13.450;2023-08-21T09:37:53;16.23;;;14.70;;
840;SDS011;406;48.566;13.450;2023-08-21T09:40:20;10.90;;;9.90;;
840;SDS011;406;48.566;13.450;2023-08-21T09:42:51;11.93;;;10.83;;
840;SDS011;406;48.566;13.450;2023-08-21T09:45:25;11.43;;;10.33;;
840;SDS011;406;48.566;13.450;2023-08-21T09:47:54;12.17;;;10.97;;
840;SDS011;406;48.566;13.450;2023-08-21T09:50:21;11.90;;;10.80;;
840;SDS011;406;48.566;13.450;2023-08-21T09:52:48;13.00;;;10.53;;
840;SDS011;406;48.566;13.450;2023-08-21T09:55:15;12.13;;;10.40;;
840;SDS011;406;48.566;13.450;2023-08-21T09:57:42;11.80;;;10.63;;
840;SDS011;406;48.566;13.450;2023-08-21T10:00:08;11.37;;;10.20;;
840;SDS011;406;48.566;13.450;2023-08-21T10:02:42;11.60;;;10.60;;
840;SDS011;406;48.566;13.450;2023-08-21T10:05:15;13.17;;;11.60;;
840;SDS011;406;48.566;13.450;2023-08-21T10:07:43;13.80;;;12.53;;
840;SDS011;406;48.566;13.450;2023-08-21T10:10:11;13.53;;;11.20;;
840;SDS011;406;48.566;13.450;2023-08-21T10:12:38;12.17;;;10.97;;
840;SDS011;406;48.566;13.450;2023-08-21T10:15:06;12.77;;;11.67;;
840;SDS011;406;48.566;13.450;2023-08-21T10:17:33;12.93;;;10.73;;
840;SDS011;406;48.566;13.450;2023-08-21T10:20:03;12.93;;;11.63;;
840;SDS011;406;48.566;13.450;2023-08-21T10:22:43;12.73;;;10.90;;
840;SDS011;406;48.566;13.450;2023-08-21T10:25:18;11.77;;;10.50;;
840;SDS011;406;48.566;13.450;2023-08-21T10:27:50;11.43;;;10.37;;
840;SDS011;406;48.566;13.450;2023-08-21T10:30:22;10.90;;;10.00;;
840;SDS011;406;48.566;13.450;2023-08-21T10:32:50;11.93;;;10.73;;
840;SDS011;406;48.566;13.450;2023-08-21T10:35:19;10.97;;;9.97;;
840;SDS011;406;48.566;13.450;2023-08-21T10:40:37;10.00;;;9.10;;
840;SDS011;406;48.566;13.450;2023-08-21T10:43:05;11.20;;;10.10;;
840;SDS011;406;48.566;13.450;2023-08-21T10:46:07;11.00;;;9.90;;
840;SDS011;406;48.566;13.450;2023-08-21T10:48:35;11.40;;;10.33;;
840;SDS011;406;48.566;13.450;2023-08-21T10:51:03;9.87;;;8.87;;
840;SDS011;406;48.566;13.450;2023-08-21T10:53:31;10.00;;;9.10;;
840;SDS011;406;48.566;13.450;2023-08-21T10:56:02;12.00;;;10.80;;
840;SDS011;406;48.566;13.450;2023-08-21T10:58:42;14.23;;;12.90;;
840;SDS011;406;48.566;13.450;2023-08-21T11:01:08;12.30;;;11.20;;
840;SDS011;406;48.566;13.450;2023-08-21T11:03:38;13.93;;;12.67;;
840;SDS011;406;48.566;13.450;2023-08-21T11:06:07;18.80;;;17.30;;
840;SDS011;406;48.566;13.450;2023-08-21T11:08:34;10.43;;;9.43;;
840;SDS011;406;48.566;13.450;2023-08-21T11:11:03;10.10;;;9.20;;
840;SDS011;406;48.566;13.450;2023-08-21T11:13:30;10.30;;;9.30;;
840;SDS011;406;48.566;13.450;2023-08-21T11:16:06;10.17;;;9.17;;
840;SDS011;406;48.566;13.450;2023-08-21T11:18:35;9.17;;;8.47;;
840;SDS011;406;48.566;13.450;2023-08-21T11:21:03;14.57;;;13.27;;
840;SDS011;406;48.566;13.450;2023-08-21T11:23:41;13.30;;;12.10;;
840;SDS011;406;48.566;13.450;2023-08-21T11:26:11;22.87;;;20.87;;
840;SDS011;406;48.566;13.450;2023-08-21T11:28:46;14.37;;;13.17;;
840;SDS011;406;48.566;13.450;2023-08-21T11:31:14;9.90;;;9.00;;
840;SDS011;406;48.566;13.450;2023-08-21T11:33:40;9.33;;;8.27;;
840;SDS011;406;48.566;13.450;2023-08-21T11:36:07;10.60;;;9.57;;
840;SDS011;406;48.566;13.450;2023-08-21T11:38:33;13.60;;;8.90;;
840;SDS011;406;48.566;13.450;2023-08-21T11:41:01;7.00;;;6.43;;
840;SDS011;406;48.566;13.450;2023-08-21T11:43:38;7.87;;;6.30;;
840;SDS011;406;48.566;13.450;2023-08-21T11:46:06;7.97;;;7.27;;
840;SDS011;406;48.566;13.450;2023-08-21T11:48:36;7.03;;;6.43;;
840;SDS011;406;48.566;13.450;2023-08-21T11:51:04;8.70;;;7.80;;
840;SDS011;406;48.566;13.450;2023-08-21T11:53:31;7.47;;;6.77;;
840;SDS011;406;48.566;13.450;2023-08-21T11:55:59;7.40;;;6.80;;
840;SDS011;406;48.566;13.450;2023-08-21T11:58:26;7.47;;;6.77;;
840;SDS011;406;48.566;13.450;2023-08-21T12:00:54;7.17;;;6.50;;
840;SDS011;406;48.566;13.450;2023-08-21T12:03:21;7.73;;;6.80;;
840;SDS011;406;48.566;13.450;2023-08-21T12:05:47;6.80;;;6.20;;
840;SDS011;406;48.566;13.450;2023-08-21T12:08:14;8.40;;;7.00;;
840;SDS011;406;48.566;13.450;2023-08-21T12:10:41;8.57;;;7.90;;
840;SDS011;406;48.566;13.450;2023-08-21T12:13:07;8.10;;;7.30;;
840;SDS011;406;48.566;13.450;2023-08-21T12:15:34;9.23;;;6.77;;
840;SDS011;406;48.566;13.450;2023-08-21T12:18:00;8.40;;;7.60;;
840;SDS011;406;48.566;13.450;2023-08-21T12:20:27;7.00;;;6.40;;
840;SDS011;406;48.566;13.450;2023-08-21T12:22:54;7.30;;;6.63;;
840;SDS011;406;48.566;13.450;2023-08-21T12:25:20;7.77;;;7.13;;
840;SDS011;406;48.566;13.450;2023-08-21T12:27:47;7.60;;;6.90;;
840;SDS011;406;48.566;13.450;2023-08-21T12:30:22;7.07;;;6.40;;
840;SDS011;406;48.566;13.450;2023-08-21T12:32:49;7.03;;;6.43;;
840;SDS011;406;48.566;13.450;2023-08-21T12:35:16;8.00;;;6.37;;
840;SDS011;406;48.566;13.450;2023-08-21T12:37:42;7.70;;;7.10;;
840;SDS011;406;48.566;13.450;2023-08-21T12:40:09;7.33;;;6.73;;
840;SDS011;406;48.566;13.450;2023-08-21T12:42:36;7.37;;;6.67;;
840;SDS011;406;48.566;13.450;2023-08-21T12:45:02;6.93;;;6.33;;
840;SDS011;406;48.566;13.450;2023-08-21T12:47:29;7.33;;;6.73;;
840;SDS011;406;48.566;13.450;2023-08-21T12:49:56;6.30;;;5.70;;
840;SDS011;406;48.566;13.450;2023-08-21T12:52:22;6.80;;;6.10;;
840;SDS011;406;48.566;13.450;2023-08-21T12:54:49;7.37;;;6.27;;
840;SDS011;406;48.566;13.450;2023-08-21T12:57:15;6.77;;;6.17;;
840;SDS011;406;48.566;13.450;2023-08-21T12:59:43;6.23;;;5.73;;
840;SDS011;406;48.566;13.450;2023-08-21T13:02:09;7.37;;;6.77;;
840;SDS011;406;48.566;13.450;2023-08-21T13:04:36;6.57;;;6.07;;
840;SDS011;406;48.566;13.450;2023-08-21T13:07:02;5.90;;;5.40;;
840;SDS011;406;48.566;13.450;2023-08-21T13:09:29;5.70;;;5.30;;
840;SDS011;406;48.566;13.450;2023-08-21T13:11:56;6.87;;;6.23;;
840;SDS011;406;48.566;13.450;2023-08-21T13:14:22;7.00;;;6.50;;
840;SDS011;406;48.566;13.450;2023-08-21T13:16:49;6.20;;;5.70;;
840;SDS011;406;48.566;13.450;2023-08-21T13:19:15;6.10;;;5.17;;
840;SDS011;406;48.566;13.450;2023-08-21T13:21:42;8.00;;;5.30;;
840;SDS011;406;48.566;13.450;2023-08-21T13:24:09;5.90;;;5.40;;
840;SDS011;406;48.566;13.450;2023-08-21T13:26:36;6.23;;;5.73;;
840;SDS011;406;48.566;13.450;2023-08-21T13:29:02;6.10;;;4.97;;
840;SDS011;406;48.566;13.450;2023-08-21T13:31:29;5.60;;;5.10;;
840;SDS011;406;48.566;13.450;2023-08-21T13:33:56;8.47;;;5.10;;
840;SDS011;406;48.566;13.450;2023-08-21T13:36:22;7.57;;;5.20;;
840;SDS011;406;48.566;13.450;2023-08-21T13:38:51;5.97;;;5.50;;
840;SDS011;406;48.566;13.450;2023-08-21T13:41:18;6.00;;;5.40;;
840;SDS011;406;48.566;13.450;2023-08-21T13:43:44;5.93;;;5.43;;
840;SDS011;406;48.566;13.450;2023-08-21T13:46:11;8.27;;;6.07;;
840;SDS011;406;48.566;13.450;2023-08-21T13:48:39;6.87;;;6.27;;
840;SDS011;406;48.566;13.450;2023-08-21T13:51:06;7.00;;;6.40;;
840;SDS011;406;48.566;13.450;2023-08-21T13:53:32;7.90;;;5.80;;
840;SDS011;406;48.566;13.450;2023-08-21T13:55:59;6.37;;;5.77;;
840;SDS011;406;48.566;13.450;2023-08-21T13:58:25;5.43;;;4.97;;
840;SDS011;406;48.566;13.450;2023-08-21T14:00:52;9.73;;;6.13;;
840;SDS011;406;48.566;13.450;2023-08-21T14:03:19;6.97;;;6.37;;
840;SDS011;406;48.566;13.450;2023-08-21T14:05:45;6.60;;;6.10;;
840;SDS011;406;48.566;13.450;2023-08-21T14:08:12;8.20;;;6.70;;
840;SDS011;406;48.566;13.450;2023-08-21T14:10:38;6.80;;;6.27;;
840;SDS011;406;48.566;13.450;2023-08-21T14:13:05;7.23;;;6.60;;
840;SDS011;406;48.566;13.450;2023-08-21T14:15:34;6.40;;;5.80;;
840;SDS011;406;48.566;13.450;2023-08-21T14:18:01;6.73;;;6.20;;
840;SDS011;406;48.566;13.450;2023-08-21T14:20:28;6.47;;;5.87;;
840;SDS011;406;48.566;13.450;2023-08-21T14:22:55;5.77;;;5.17;;
840;SDS011;406;48.566;13.450;2023-08-21T14:25:21;6.13;;;5.63;;
840;SDS011;406;48.566;13.450;2023-08-21T14:27:48;7.03;;;6.43;;
840;SDS011;406;48.566;13.450;2023-08-21T14:30:17;6.10;;;5.60;;
840;SDS011;406;48.566;13.450;2023-08-21T14:32:44;6.27;;;5.67;;
840;SDS011;406;48.566;13.450;2023-08-21T14:35:11;6.13;;;5.53;;
840;SDS011;406;48.566;13.450;2023-08-21T14:37:38;5.23;;;4.73;;
840;SDS011;406;48.566;13.450;2023-08-21T14:40:07;6.43;;;5.87;;
840;SDS011;406;48.566;13.450;2023-08-21T14:42:35;6.40;;;5.80;;
840;SDS011;406;48.566;13.450;2023-08-21T14:45:03;5.47;;;5.07;;
840;SDS011;406;48.566;13.450;2023-08-21T14:47:30;6.13;;;5.73;;
840;SDS011;406;48.566;13.450;2023-08-21T14:49:57;5.70;;;5.20;;
840;SDS011;406;48.566;13.450;2023-08-21T14:52:24;5.50;;;5.00;;
840;SDS011;406;48.566;13.450;2023-08-21T14:54:51;6.80;;;5.70;;
840;SDS011;406;48.566;13.450;2023-08-21T14:57:17;6.50;;;4.83;;
840;SDS011;406;48.566;13.450;2023-08-21T14:59:44;5.73;;;5.27;;
840;SDS011;406;48.566;13.450;2023-08-21T15:02:10;5.77;;;4.97;;
840;SDS011;406;48.566;13.450;2023-08-21T15:04:37;5.93;;;5.43;;
840;SDS011;406;48.566;13.450;2023-08-21T15:07:03;5.47;;;4.90;;
840;SDS011;406;48.566;13.450;2023-08-21T15:09:30;5.07;;;4.70;;
840;SDS011;406;48.566;13.450;2023-08-21T15:11:56;5.67;;;5.20;;
840;SDS011;406;48.566;13.450;2023-08-21T15:14:23;8.60;;;5.37;;
840;SDS011;406;48.566;13.450;2023-08-21T15:16:50;6.13;;;5.50;;
840;SDS011;406;48.566;13.450;2023-08-21T15:19:20;6.30;;;5.70;;